Aviation Digital Data Service (ADDS)

Output produced by METARs form (1032 UTC 02 September 2015)
found at http://www.aviationweather.gov/adds/metars/
 
KFIG 020954Z AUTO 00000KT 1/4SM FG VV002 17/16 A3012 RMK AO2 SLP189 T01670161
KFIG 020854Z AUTO 00000KT 1/4SM FG VV002 17/16 A3012 RMK AO2 SLP189 T01670161 55003
KFIG 020754Z AUTO 00000KT 1/4SM FG VV002 17/17 A3012 RMK AO2 SLP188 T01720167
KFIG 020707Z AUTO 23003KT 1/4SM FG VV002 17/16 A3011 RMK AO2 T01720161
KFIG 020701Z AUTO 23003KT 1 1/4SM BR BKN002 17/16 A3012 RMK AO2 T01720161
KFIG 020654Z AUTO 24003KT 1 3/4SM BR SCT003 17/16 A3011 RMK AO2 SLP187 T01720161
KFIG 020634Z AUTO 20003KT 2SM BR CLR 17/16 A3012 RMK AO2 T01720161
KFIG 020624Z AUTO 00000KT 1 3/4SM BR FEW001 18/16 A3012 RMK AO2 T01780161
KFIG 020554Z AUTO 00000KT 2SM BR FEW001 18/17 A3013 RMK AO2 SLP191 60000 T01780167 10233 20172 56004
KFIG 020454Z AUTO 00000KT 6SM BR CLR 18/16 A3013 RMK AO2 RAE32 SLP195 P0000 T01780161 403000167
KFIG 020354Z AUTO 00000KT 7SM -RA CLR 19/17 A3014 RMK AO2 RAB0257E33B49 SLP196 P0000 T01890167
KFIG 020254Z AUTO 00000KT 7SM CLR 19/17 A3013 RMK AO2 SLP193 T01940172 51010
KFIG 020154Z AUTO 00000KT 8SM CLR 21/18 A3013 RMK AO2 SLP193 T02060178
KFIG 020054Z AUTO 36004KT 8SM CLR 21/18 A3012 RMK AO2 SLP192 T02110183
KFIG 012354Z AUTO 35004KT 9SM CLR 23/19 A3010 RMK AO2 SLP184 T02330189 10300 20233 55001
KFIG 012254Z AUTO 32004KT 10SM CLR 27/17 A3010 RMK AO2 SLP181 T02720172
KFIG 012154Z AUTO 33005KT 10SM CLR 28/17 A3009 RMK AO2 SLP181 T02830172
KFIG 012054Z AUTO 32006KT 10SM FEW050 29/17 A3010 RMK AO2 SLP182 T02940167 56011
KFIG 011954Z AUTO 29006KT 10SM CLR 29/16 A3010 RMK AO2 SLP183 T02940161
KFIG 011854Z AUTO 28004KT 10SM SCT046 29/17 A3012 RMK AO2 SLP189 T02940172
KFIG 011754Z AUTO 31006KT 10SM FEW042 28/16 A3013 RMK AO2 SLP193 T02830161 10289 20172 58007
KFIG 011654Z AUTO 31006KT 10SM SCT033 28/17 A3014 RMK AO2 SLP194 T02780172
KFIG 011554Z AUTO 34006KT 10SM SCT030 27/18 A3015 RMK AO2 SLP200 T02670183
KFIG 011551Z AUTO 34007KT 290V360 10SM BKN028 27/18 A3015 RMK AO2
KFIG 011454Z AUTO 00000KT 10SM CLR 25/18 A3016 RMK AO2 SLP205 T02500183 50003
KFIG 011354Z AUTO 00000KT 8SM CLR 21/18 A3017 RMK AO2 SLP207 T02110183
KFIG 011339Z AUTO 00000KT 6SM BR SCT002 21/18 A3017 RMK AO2 T02060183
KFIG 011325Z AUTO 00000KT 3SM BR BKN002 19/18 A3017 RMK AO2 T01890183
KFIG 011317Z AUTO 00000KT 1SM BR VV002 19/18 A3017 RMK AO2 T01890178
KFIG 011254Z AUTO 00000KT M1/4SM FG VV002 18/18 A3016 RMK AO2 SLP207 T01780178
KFIG 011154Z AUTO 18003KT M1/4SM FG VV002 17/17 A3016 RMK AO2 SLP203 7//// T01720167 10189 20167 53012
KFIG 011054Z AUTO 21003KT M1/4SM FG VV002 17/16 A3014 RMK AO2 SLP196 T01670161
KFIG 010954Z AUTO 00000KT 1/4SM FG VV002 17/16 A3012 RMK AO2 SLP191 T01670161
KFIG 010854Z AUTO 23003KT 1/4SM FG VV002 17/17 A3012 RMK AO2 SLP188 T01720167 50000
KFIG 010754Z AUTO 22003KT 1/4SM FG VV002 17/17 A3012 RMK AO2 SLP189 T01720167
KFIG 010751Z AUTO 21003KT 1/4SM FG VV002 17/17 A3012 RMK AO2
KFIG 010721Z AUTO 22003KT 1/4SM FG VV004 17/17 A3011 RMK AO2 T01720167
KFIG 010654Z AUTO 00000KT 1/2SM FG VV006 18/17 A3012 RMK AO2 SLP188 T01780172
KFIG 010649Z AUTO 00000KT 3/4SM BR VV006 18/17 A3012 RMK AO2
KFIG 010636Z AUTO 00000KT 1 1/2SM BR FEW005 18/17 A3012 RMK AO2 T01780167
KFIG 010617Z AUTO 21003KT 3/4SM BR VV006 18/17 A3012 RMK AO2 T01780167
KFIG 010614Z AUTO 00000KT 1 1/2SM BR FEW005 18/17 A3012 RMK AO2 T01830172
KFIG 010554Z AUTO 00000KT 4SM BR CLR 19/18 A3012 RMK AO2 RAB17E32 SLP187 P0000 60000 T01890178 10250 20183 50001
KFIG 010454Z AUTO 00000KT 6SM BR CLR 19/18 A3012 RMK AO2 SLP189 T01890178 403060156
KFIG 010354Z AUTO 00000KT 9SM CLR 20/18 A3012 RMK AO2 RAB35E46 SLP189 P0000 T02000178
KFIG 010254Z AUTO 00000KT 10SM CLR 21/18 A3011 RMK AO2 SLP189 T02060178 51011
KFIG 010154Z AUTO 00000KT 10SM CLR 22/18 A3010 RMK AO2 SLP186 T02170183
KFIG 010054Z AUTO 00000KT 10SM CLR 22/19 A3009 RMK AO2 SLP183 T02220189
KFIG 312354Z AUTO 31003KT 10SM CLR 25/19 A3008 RMK AO2 SLP177 T02500189 10306 20250 53004
KFIG 312254Z AUTO 29004KT 10SM CLR 28/18 A3007 RMK AO2 SLP173 T02780178